createdAt,value
2017-12-20T00:01:56.023Z,94.40
2017-12-20T00:04:25.011Z,94.40
2017-12-20T00:06:53.066Z,94.40
2017-12-20T00:09:23.011Z,94.40
2017-12-20T00:11:55.801Z,94.40
2017-12-20T00:14:23.819Z,94.40
2017-12-20T00:16:55.427Z,94.40
2017-12-20T00:19:33.923Z,94.50
2017-12-20T00:22:02.919Z,94.50
2017-12-20T00:24:30.935Z,94.50
2017-12-20T00:26:59.895Z,94.50
2017-12-20T00:29:32.355Z,94.50
2017-12-20T00:32:08.809Z,94.50
2017-12-20T00:34:38.715Z,94.40
2017-12-20T00:37:07.755Z,94.50
2017-12-20T00:39:38.479Z,94.50
2017-12-20T00:42:10.515Z,94.50
2017-12-20T00:44:50.959Z,94.50
2017-12-20T00:47:27.635Z,94.50
2017-12-20T00:49:56.679Z,94.50
2017-12-20T00:52:26.467Z,94.50
2017-12-20T00:54:58.451Z,94.50
2017-12-20T00:57:33.148Z,94.60
2017-12-20T01:00:03.075Z,94.50
2017-12-20T01:02:41.743Z,94.50
2017-12-20T01:05:10.791Z,94.50
2017-12-20T01:07:40.809Z,94.50
2017-12-20T01:10:10.838Z,94.60
2017-12-20T01:12:43.311Z,94.60
2017-12-20T01:15:18.019Z,94.70
2017-12-20T01:17:54.339Z,94.70
2017-12-20T01:20:24.287Z,94.60
2017-12-20T01:22:53.279Z,94.70
2017-12-20T01:25:24.943Z,94.70
2017-12-20T01:28:04.328Z,94.70
2017-12-20T01:30:35.446Z,94.70
2017-12-20T01:33:05.223Z,94.70
2017-12-20T01:35:34.219Z,94.70
2017-12-20T01:38:09.119Z,94.70
2017-12-20T01:40:50.767Z,94.70
2017-12-20T01:43:22.895Z,94.80
2017-12-20T01:45:55.639Z,94.80
2017-12-20T01:48:32.123Z,94.80
2017-12-20T01:51:01.859Z,94.90
2017-12-20T01:53:32.902Z,94.90
2017-12-20T01:56:01.898Z,94.90
2017-12-20T01:58:30.883Z,94.90
2017-12-20T02:00:59.890Z,94.90
2017-12-20T02:03:29.887Z,94.90
2017-12-20T02:05:58.879Z,94.90
2017-12-20T02:08:33.882Z,94.80
2017-12-20T02:11:07.687Z,94.80
2017-12-20T02:13:35.730Z,94.80
2017-12-20T02:16:08.354Z,94.80
2017-12-20T02:18:36.387Z,94.90
2017-12-20T02:21:06.347Z,94.80
2017-12-20T02:23:35.335Z,94.80
2017-12-20T02:26:04.347Z,94.80
2017-12-20T02:28:43.942Z,94.80
2017-12-20T02:31:11.966Z,94.80
2017-12-20T02:33:45.622Z,94.80
2017-12-20T02:36:18.638Z,94.80
2017-12-20T02:38:46.638Z,94.80
2017-12-20T02:41:18.887Z,94.70
2017-12-20T02:44:01.123Z,94.70
2017-12-20T02:46:29.158Z,94.70
2017-12-20T02:49:04.978Z,94.70
2017-12-20T02:51:57.182Z,94.70
2017-12-20T02:54:38.555Z,94.70
2017-12-20T02:57:09.286Z,94.70
2017-12-20T02:59:39.974Z,94.70
2017-12-20T03:02:08.346Z,94.70
2017-12-20T03:05:01.079Z,94.60
2017-12-20T03:07:39.686Z,94.70
2017-12-20T03:10:08.481Z,94.60
2017-12-20T03:12:38.434Z,94.60
2017-12-20T03:15:06.450Z,94.60
2017-12-20T03:17:36.434Z,94.60
2017-12-20T03:20:04.446Z,94.60
2017-12-20T03:22:39.295Z,94.60
2017-12-20T03:25:09.214Z,94.60
2017-12-20T03:27:51.686Z,94.60
2017-12-20T03:33:19.642Z,94.60
2017-12-20T03:35:52.386Z,94.60
2017-12-20T03:41:22.411Z,94.60
2017-12-20T03:44:01.054Z,94.60
2017-12-20T03:46:50.066Z,94.60
2017-12-20T03:49:26.354Z,94.60
2017-12-20T03:51:56.294Z,94.50
2017-12-20T03:54:26.318Z,94.50
2017-12-20T03:56:54.370Z,94.50
2017-12-20T03:59:27.706Z,94.50
2017-12-20T04:01:56.498Z,94.50
2017-12-20T04:07:19.202Z,94.50
2017-12-20T04:09:50.283Z,94.60
2017-12-20T04:12:22.230Z,94.60
2017-12-20T04:15:07.346Z,94.50
2017-12-20T04:17:36.285Z,94.80
2017-12-20T04:20:07.450Z,94.60
2017-12-20T04:22:37.458Z,94.60
2017-12-20T04:25:07.469Z,94.60
2017-12-20T04:27:43.289Z,94.60
2017-12-20T04:30:23.454Z,94.60
2017-12-20T04:32:58.173Z,94.60
2017-12-20T04:35:28.125Z,94.50
2017-12-20T04:37:57.094Z,94.50
2017-12-20T04:40:25.105Z,94.50
2017-12-20T04:43:02.150Z,94.50
2017-12-20T04:45:35.354Z,94.50
2017-12-20T04:48:14.978Z,94.40
2017-12-20T04:50:57.686Z,94.50
2017-12-20T04:53:39.045Z,94.50
2017-12-20T04:56:07.977Z,94.50
2017-12-20T04:58:39.038Z,94.50
2017-12-20T05:01:07.062Z,94.50
2017-12-20T05:03:35.078Z,94.50
2017-12-20T05:06:04.070Z,94.50
2017-12-20T05:08:37.342Z,94.50
2017-12-20T05:11:19.386Z,94.50
2017-12-20T05:14:00.021Z,94.50
2017-12-20T05:16:32.290Z,94.50
2017-12-20T05:19:04.145Z,94.50
2017-12-20T05:21:34.169Z,94.40
2017-12-20T05:24:07.438Z,94.40
2017-12-20T05:26:36.465Z,94.60
2017-12-20T05:29:23.385Z,94.50
2017-12-20T05:31:55.841Z,94.50
2017-12-20T05:34:24.809Z,94.50
2017-12-20T05:36:59.937Z,94.50
2017-12-20T05:39:37.921Z,94.50
2017-12-20T05:45:06.469Z,94.60
2017-12-20T05:47:36.485Z,94.60
2017-12-20T05:50:04.497Z,94.60
2017-12-20T05:52:35.805Z,94.60
2017-12-20T05:55:09.589Z,94.60
2017-12-20T05:57:42.373Z,94.90
2017-12-20T06:00:10.392Z,94.60
2017-12-20T06:02:43.125Z,94.60
2017-12-20T06:05:13.137Z,94.60
2017-12-20T06:08:04.080Z,94.60
2017-12-20T06:10:39.052Z,94.60
2017-12-20T06:13:14.940Z,94.60
2017-12-20T06:15:48.800Z,94.80
2017-12-20T06:18:37.767Z,94.60
2017-12-20T06:21:06.685Z,94.50
2017-12-20T06:23:40.841Z,94.50
2017-12-20T06:26:10.613Z,94.50
2017-12-20T06:28:38.643Z,94.50
2017-12-20T06:31:07.589Z,94.50
2017-12-20T06:33:36.565Z,94.60
2017-12-20T06:36:05.557Z,94.80
2017-12-20T06:38:52.524Z,94.60
2017-12-20T06:41:22.531Z,94.60
2017-12-20T06:43:54.765Z,94.60
2017-12-20T06:46:24.768Z,94.60
2017-12-20T06:48:53.777Z,94.90
2017-12-20T06:51:36.632Z,94.60
2017-12-20T06:54:04.680Z,94.60
2017-12-20T06:56:34.456Z,94.60
2017-12-20T06:59:07.536Z,94.60
2017-12-20T07:01:48.072Z,94.70
2017-12-20T07:04:18.086Z,94.60
2017-12-20T07:06:48.044Z,94.80
2017-12-20T07:09:18.072Z,94.50
2017-12-20T07:11:49.468Z,94.40
2017-12-20T07:14:22.108Z,94.30
2017-12-20T07:17:04.204Z,94.30
2017-12-20T07:19:32.241Z,94.30
2017-12-20T07:22:02.173Z,94.30
2017-12-20T07:24:31.160Z,94.40
2017-12-20T07:27:03.964Z,94.40
2017-12-20T07:29:32.928Z,94.40
2017-12-20T07:32:00.954Z,94.30
2017-12-20T07:34:31.960Z,94.40
2017-12-20T07:37:05.736Z,94.40
2017-12-20T07:39:45.157Z,94.40
2017-12-20T07:42:29.796Z,94.50
2017-12-20T07:44:58.732Z,94.50
2017-12-20T07:47:45.696Z,94.50
2017-12-20T07:50:17.260Z,94.60
2017-12-20T07:52:47.204Z,94.60
2017-12-20T07:58:14.685Z,94.70
2017-12-20T08:00:43.608Z,94.70
2017-12-20T08:03:13.384Z,94.70
2017-12-20T08:05:44.037Z,94.60
2017-12-20T08:08:18.848Z,94.60
2017-12-20T08:10:50.624Z,94.60
2017-12-20T08:13:30.928Z,94.60
2017-12-20T08:16:00.612Z,94.60
2017-12-20T08:18:47.344Z,94.60
2017-12-20T08:21:20.340Z,94.60
2017-12-20T08:23:50.285Z,94.50
2017-12-20T08:26:19.275Z,94.50
2017-12-20T08:28:57.203Z,94.60
2017-12-20T08:31:28.212Z,94.50
2017-12-20T08:34:00.084Z,94.50
2017-12-20T08:36:39.304Z,94.50
2017-12-20T08:39:10.372Z,94.30
2017-12-20T08:41:38.376Z,94.10
2017-12-20T08:44:06.392Z,94.10
2017-12-20T08:46:54.500Z,94.10
2017-12-20T08:49:24.440Z,94.10
2017-12-20T08:51:55.996Z,94.20
2017-12-20T08:54:24.012Z,94.00
2017-12-20T08:57:05.076Z,93.80
2017-12-20T08:59:35.863Z,93.70
2017-12-20T09:02:03.868Z,93.70
2017-12-20T09:04:53.781Z,93.60
2017-12-20T09:07:23.684Z,93.50
2017-12-20T09:09:51.712Z,93.60
2017-12-20T09:12:19.728Z,93.50
2017-12-20T09:14:47.732Z,93.50
2017-12-20T09:17:15.749Z,93.30
2017-12-20T09:19:44.539Z,93.40
2017-12-20T09:22:13.319Z,93.30
2017-12-20T09:24:42.099Z,93.50
2017-12-20T09:30:04.468Z,93.60
2017-12-20T09:32:33.248Z,93.60
2017-12-20T09:35:02.032Z,93.50
2017-12-20T09:37:30.081Z,93.50
2017-12-20T09:39:59.080Z,93.40
2017-12-20T09:42:37.548Z,93.20
2017-12-20T09:45:05.594Z,93.10
2017-12-20T09:47:33.584Z,93.20
2017-12-20T09:50:02.508Z,93.30
2017-12-20T09:52:36.816Z,93.30
2017-12-20T09:55:04.819Z,93.00
2017-12-20T09:57:32.832Z,93.00
2017-12-20T10:00:04.303Z,92.80
2017-12-20T10:02:32.347Z,93.00
2017-12-20T10:05:04.676Z,92.70
2017-12-20T10:07:32.688Z,92.70
2017-12-20T10:10:00.711Z,92.90
2017-12-20T10:12:32.151Z,92.90
2017-12-20T10:15:03.912Z,93.10
2017-12-20T10:17:31.936Z,93.20
2017-12-20T10:20:00.856Z,93.20
2017-12-20T10:22:28.871Z,93.30
2017-12-20T10:24:57.651Z,93.20
2017-12-20T10:27:27.424Z,93.00
2017-12-20T10:30:03.259Z,93.00
2017-12-20T10:32:33.188Z,93.00
2017-12-20T10:35:04.955Z,93.10
2017-12-20T10:37:32.967Z,93.20
2017-12-20T10:40:01.743Z,92.90
2017-12-20T10:42:30.527Z,92.70
2017-12-20T10:44:59.303Z,92.70
2017-12-20T10:47:34.074Z,92.70
2017-12-20T10:50:02.075Z,92.60
2017-12-20T10:52:33.127Z,92.50
2017-12-20T10:55:02.107Z,92.30
2017-12-20T10:57:34.547Z,92.30
2017-12-20T11:00:04.491Z,92.40
2017-12-20T11:02:37.039Z,92.40
2017-12-20T11:05:05.047Z,92.30
2017-12-20T11:07:33.825Z,92.30
2017-12-20T11:10:03.511Z,92.30
2017-12-20T11:12:31.527Z,92.30
2017-12-20T11:14:59.539Z,92.40
2017-12-20T11:17:47.882Z,92.50
2017-12-20T11:20:19.782Z,92.60
2017-12-20T11:22:47.802Z,92.70
2017-12-20T11:25:15.806Z,92.80
2017-12-20T11:27:48.251Z,92.80
2017-12-20T11:30:18.195Z,92.70
2017-12-20T11:32:46.206Z,92.70
2017-12-20T11:35:17.943Z,92.60
2017-12-20T11:37:45.938Z,92.60
2017-12-20T11:40:15.595Z,92.80
2017-12-20T11:42:43.618Z,92.80
2017-12-20T11:45:13.302Z,92.80
2017-12-20T11:47:41.319Z,92.80
2017-12-20T11:50:15.547Z,92.90
2017-12-20T11:52:43.559Z,93.00
2017-12-20T11:55:11.574Z,92.80
2017-12-20T11:57:40.502Z,92.60
2017-12-20T12:00:08.523Z,92.50
2017-12-20T12:02:36.543Z,92.60
2017-12-20T12:05:04.558Z,92.60
2017-12-20T12:07:36.162Z,92.60
2017-12-20T12:10:04.215Z,92.60
2017-12-20T12:12:32.227Z,92.80
2017-12-20T12:15:00.230Z,92.80
2017-12-20T12:17:28.278Z,92.90
2017-12-20T12:19:57.062Z,92.80
2017-12-20T12:22:25.079Z,92.70
2017-12-20T12:24:53.083Z,92.30
2017-12-20T12:27:22.986Z,92.00
2017-12-20T12:29:51.970Z,92.00
2017-12-20T12:32:23.538Z,91.80
2017-12-20T12:34:51.550Z,91.60
2017-12-20T12:37:25.677Z,91.90
2017-12-20T12:39:53.690Z,91.70
2017-12-20T12:42:21.698Z,91.70
2017-12-20T12:44:49.726Z,91.90
2017-12-20T12:47:17.746Z,91.90
2017-12-20T12:49:51.332Z,92.10
2017-12-20T12:52:19.354Z,91.90
2017-12-20T12:55:02.086Z,91.90
2017-12-20T12:57:30.106Z,92.20
2017-12-20T13:00:03.154Z,92.10
2017-12-20T13:02:31.934Z,92.70
2017-12-20T13:04:59.950Z,92.50
2017-12-20T13:07:27.986Z,92.70
2017-12-20T13:10:00.221Z,92.20
2017-12-20T13:12:31.886Z,92.20
2017-12-20T13:14:59.902Z,92.30
2017-12-20T13:17:35.154Z,92.30
2017-12-20T13:20:03.170Z,92.40
2017-12-20T13:22:31.188Z,92.50
2017-12-20T13:25:00.097Z,92.40
2017-12-20T13:27:28.114Z,92.30
2017-12-20T13:30:02.606Z,92.40
2017-12-20T13:32:30.622Z,92.10
2017-12-20T13:34:58.658Z,91.90
2017-12-20T13:37:36.686Z,91.80
2017-12-20T13:40:08.504Z,91.70
2017-12-20T13:42:37.438Z,91.70
2017-12-20T13:45:06.222Z,91.80
2017-12-20T13:47:36.982Z,92.00
2017-12-20T13:50:09.694Z,92.00
2017-12-20T13:52:38.605Z,92.20
2017-12-20T13:55:13.090Z,92.30
2017-12-20T13:58:00.170Z,92.60
2017-12-20T14:00:32.086Z,92.90
2017-12-20T14:03:02.008Z,92.80
2017-12-20T14:05:32.002Z,93.00
2017-12-20T14:08:01.938Z,93.10
2017-12-20T14:10:31.865Z,93.10
2017-12-20T14:13:01.862Z,93.10
2017-12-20T14:15:31.874Z,93.10
2017-12-20T14:18:03.410Z,93.20
2017-12-20T14:20:33.346Z,93.30
2017-12-20T14:23:01.362Z,93.50
2017-12-20T14:25:29.389Z,93.60
2017-12-20T14:28:00.630Z,93.70
2017-12-20T14:30:39.058Z,93.70
2017-12-20T14:33:10.296Z,93.70
2017-12-20T14:35:38.313Z,93.60
2017-12-20T14:38:13.613Z,93.60
2017-12-20T14:40:47.113Z,93.60
2017-12-20T14:43:15.113Z,93.50
2017-12-20T14:45:44.054Z,93.60
2017-12-20T14:48:15.105Z,93.60
2017-12-20T14:50:43.125Z,93.50
2017-12-20T14:53:14.525Z,93.50
2017-12-20T14:55:42.541Z,93.50
2017-12-20T14:58:11.465Z,93.60
2017-12-20T15:00:41.134Z,93.70
2017-12-20T15:03:10.077Z,93.70
2017-12-20T15:05:40.086Z,93.70
2017-12-20T15:08:12.787Z,93.70
2017-12-20T15:10:47.141Z,93.80
2017-12-20T15:13:20.974Z,93.90
2017-12-20T15:15:50.901Z,93.90
2017-12-20T15:18:19.812Z,94.00
2017-12-20T15:20:47.829Z,94.00
2017-12-20T15:23:15.849Z,94.10
2017-12-20T15:25:44.813Z,94.10
2017-12-20T15:28:14.857Z,94.30
2017-12-20T15:30:42.877Z,94.10
2017-12-20T15:33:10.889Z,94.10
2017-12-20T15:35:39.800Z,94.00
2017-12-20T15:38:18.805Z,94.10
2017-12-20T15:40:46.880Z,94.10
2017-12-20T15:43:14.909Z,94.10
2017-12-20T15:45:42.921Z,94.10
2017-12-20T15:48:16.001Z,94.10
2017-12-20T15:50:44.017Z,94.20
2017-12-20T15:53:12.941Z,94.10
2017-12-20T15:55:40.973Z,94.20
2017-12-20T15:58:08.997Z,94.40
2017-12-20T16:00:37.024Z,94.20
2017-12-20T16:03:09.345Z,94.20
2017-12-20T16:05:37.356Z,94.20
2017-12-20T16:08:05.377Z,94.20
2017-12-20T16:10:34.380Z,94.20
2017-12-20T16:13:02.393Z,94.20
2017-12-20T16:15:48.493Z,94.10
2017-12-20T16:18:30.320Z,94.10
2017-12-20T16:21:00.954Z,94.20
2017-12-20T16:23:32.288Z,94.20
2017-12-20T16:26:01.209Z,94.40
2017-12-20T16:28:29.217Z,94.20
2017-12-20T16:31:01.309Z,94.30
2017-12-20T16:33:30.310Z,94.30
2017-12-20T16:36:00.232Z,94.30
2017-12-20T16:38:30.261Z,94.30
2017-12-20T16:40:58.308Z,94.30
2017-12-20T16:43:44.025Z,94.30
2017-12-20T16:46:12.998Z,94.30
2017-12-20T16:48:40.997Z,94.20
2017-12-20T16:51:11.709Z,94.30
2017-12-20T16:53:43.352Z,94.30
2017-12-20T16:56:12.353Z,94.30
2017-12-20T16:58:41.285Z,94.20
2017-12-20T17:01:10.193Z,94.30
2017-12-20T17:03:40.140Z,94.30
2017-12-20T17:06:09.120Z,94.30
2017-12-20T17:08:37.132Z,94.30
2017-12-20T17:11:09.069Z,94.20
2017-12-20T17:13:37.085Z,94.20
2017-12-20T17:16:09.408Z,94.50
2017-12-20T17:18:37.420Z,94.30
2017-12-20T17:21:06.361Z,94.20
2017-12-20T17:23:38.940Z,94.20
2017-12-20T17:26:10.500Z,94.20
2017-12-20T17:28:39.488Z,94.20
2017-12-20T17:31:07.524Z,94.20
2017-12-20T17:33:47.152Z,94.30
2017-12-20T17:36:16.061Z,94.30
2017-12-20T17:38:45.096Z,94.30
2017-12-20T17:41:13.127Z,94.30
2017-12-20T17:43:42.132Z,94.30
2017-12-20T17:46:11.053Z,94.10
2017-12-20T17:48:40.024Z,94.10
2017-12-20T17:51:08.039Z,94.00
2017-12-20T17:53:39.240Z,93.90
2017-12-20T17:56:09.256Z,93.80
2017-12-20T17:58:38.240Z,93.80
2017-12-20T18:01:07.248Z,93.80
2017-12-20T18:03:35.300Z,93.70
2017-12-20T18:06:03.312Z,93.70
2017-12-20T18:08:34.951Z,93.60
2017-12-20T18:11:02.964Z,93.60
2017-12-20T18:13:34.388Z,93.50
2017-12-20T18:16:03.200Z,93.50
2017-12-20T18:18:37.727Z,93.50
2017-12-20T18:21:10.322Z,93.40
2017-12-20T18:23:39.339Z,93.40
2017-12-20T18:26:17.432Z,93.40
2017-12-20T18:28:50.435Z,93.40
2017-12-20T18:31:19.408Z,93.40
2017-12-20T18:33:47.424Z,93.30
2017-12-20T18:36:18.657Z,93.30
2017-12-20T18:38:50.491Z,93.30
2017-12-20T18:41:18.536Z,93.30
2017-12-20T18:43:53.683Z,93.40
2017-12-20T18:46:26.704Z,93.40
2017-12-20T18:48:56.491Z,93.50
2017-12-20T18:51:28.000Z,93.50
2017-12-20T18:53:56.964Z,93.60
2017-12-20T18:56:26.760Z,93.60
2017-12-20T18:58:54.784Z,93.60
2017-12-20T19:01:22.808Z,93.60
2017-12-20T19:03:54.756Z,93.70
2017-12-20T19:06:24.759Z,93.70
2017-12-20T19:08:54.844Z,93.80
2017-12-20T19:11:22.891Z,93.80
2017-12-20T19:13:51.663Z,93.80
2017-12-20T19:16:25.380Z,93.80
2017-12-20T19:18:53.400Z,93.80
2017-12-20T19:21:21.436Z,93.80
2017-12-20T19:23:49.506Z,93.80
2017-12-20T19:26:20.492Z,93.90
2017-12-20T19:28:50.531Z,93.90
2017-12-20T19:31:19.316Z,93.90
2017-12-20T19:33:50.051Z,93.90
2017-12-20T19:36:18.836Z,94.20
2017-12-20T19:38:51.319Z,93.90
2017-12-20T19:41:26.755Z,94.00
2017-12-20T19:43:54.772Z,94.00
2017-12-20T19:46:24.718Z,94.00
2017-12-20T19:48:58.535Z,94.10
2017-12-20T19:51:26.583Z,94.10
2017-12-20T19:53:58.260Z,94.10
2017-12-20T19:56:30.915Z,94.10
2017-12-20T19:59:00.565Z,94.20
2017-12-20T20:01:29.379Z,94.20
2017-12-20T20:03:57.435Z,94.20
2017-12-20T20:06:26.387Z,94.20
2017-12-20T20:08:54.423Z,94.20
2017-12-20T20:11:23.351Z,94.20
2017-12-20T20:13:51.371Z,94.30
2017-12-20T20:16:20.306Z,94.30
2017-12-20T20:18:48.323Z,94.30
2017-12-20T20:21:22.443Z,94.30
2017-12-20T20:23:50.487Z,94.30
2017-12-20T20:26:19.271Z,94.20
2017-12-20T20:28:48.099Z,94.30
2017-12-20T20:31:16.131Z,94.30
2017-12-20T20:33:44.911Z,94.30
2017-12-20T20:36:14.715Z,94.30
2017-12-20T20:38:44.715Z,94.30
2017-12-20T20:41:12.735Z,94.40
2017-12-20T20:43:40.791Z,94.30
2017-12-20T20:46:09.598Z,94.30
2017-12-20T20:48:38.547Z,94.30
2017-12-20T20:51:10.195Z,94.30
2017-12-20T20:53:42.675Z,94.50
2017-12-20T20:56:11.711Z,94.30
2017-12-20T20:58:39.779Z,94.30
2017-12-20T21:01:09.544Z,94.30
2017-12-20T21:03:38.547Z,94.40
2017-12-20T21:06:07.539Z,94.30
2017-12-20T21:08:38.278Z,94.40
2017-12-20T21:11:08.010Z,94.50
2017-12-20T21:13:36.067Z,94.30
2017-12-20T21:16:08.835Z,94.30
2017-12-20T21:18:45.387Z,94.30
2017-12-20T21:21:14.379Z,94.30
2017-12-20T21:23:54.179Z,94.40
2017-12-20T21:26:27.079Z,94.40
2017-12-20T21:28:55.094Z,94.40
2017-12-20T21:31:23.123Z,94.30
2017-12-20T21:33:51.155Z,94.40
2017-12-20T21:36:19.222Z,94.30
2017-12-20T21:38:55.447Z,94.30
2017-12-20T21:41:24.555Z,94.30
2017-12-20T21:43:53.155Z,94.30
2017-12-20T21:46:22.995Z,94.20
2017-12-20T21:48:51.699Z,94.20
2017-12-20T21:51:20.574Z,94.20
2017-12-20T21:53:49.998Z,94.20
2017-12-20T21:56:19.546Z,94.20
2017-12-20T21:58:48.906Z,94.20
2017-12-20T22:01:18.439Z,94.10
2017-12-20T22:03:48.683Z,94.00
2017-12-20T22:06:18.246Z,94.00
2017-12-20T22:08:50.182Z,94.00
2017-12-20T22:11:19.431Z,93.90
2017-12-20T22:13:49.210Z,93.80
2017-12-20T22:16:18.346Z,93.80
2017-12-20T22:18:48.246Z,93.80
2017-12-20T22:21:20.243Z,93.80
2017-12-20T22:23:48.259Z,93.80
2017-12-20T22:26:17.286Z,93.80
2017-12-20T22:28:49.202Z,93.90
2017-12-20T22:31:17.238Z,93.90
2017-12-20T22:33:49.566Z,94.00
2017-12-20T22:36:22.561Z,94.00
2017-12-20T22:38:51.634Z,94.00
2017-12-20T22:41:20.290Z,94.30
2017-12-20T22:43:48.346Z,94.20
2017-12-20T22:46:16.362Z,94.10
2017-12-20T22:48:46.402Z,94.20
2017-12-20T22:51:26.194Z,94.20
2017-12-20T22:53:54.207Z,94.20
2017-12-20T22:56:23.170Z,94.30
2017-12-20T22:58:54.457Z,94.50
2017-12-20T23:01:26.419Z,94.20
2017-12-20T23:03:56.305Z,94.30
2017-12-20T23:06:25.298Z,94.30
2017-12-20T23:08:53.958Z,94.30
2017-12-20T23:11:22.246Z,94.30
2017-12-20T23:13:50.262Z,94.40
2017-12-20T23:16:19.323Z,94.40
2017-12-20T23:18:49.954Z,94.40
2017-12-20T23:21:20.006Z,94.40
2017-12-20T23:23:48.106Z,94.40
2017-12-20T23:26:16.997Z,94.40
2017-12-20T23:28:46.946Z,94.50
2017-12-20T23:31:14.986Z,94.40
2017-12-20T23:33:43.782Z,94.40
2017-12-20T23:36:12.830Z,94.40
2017-12-20T23:38:41.646Z,94.40
2017-12-20T23:41:10.602Z,94.40
2017-12-20T23:43:39.054Z,94.40
2017-12-20T23:46:07.066Z,94.40
2017-12-20T23:48:35.358Z,94.40
2017-12-20T23:51:03.790Z,94.40
2017-12-20T23:53:35.750Z,94.30
2017-12-20T23:56:03.782Z,94.30
2017-12-20T23:58:31.798Z,94.30
